Time;durP1;ratioP1;P1;durP2;ratioP2;P2;SDS_P1;SDS_P2;PMS_P1;PMS_P2;Temp;Humidity;BMP_temperature;BMP_pressure;BME280_temperature;BME280_humidity;BME280_pressure;Samples;Min_cycle;Max_cycle;Signal;HPM_P1;HPM_P2
2022/05/18 00:01:09;;;;;;;4.55;2.20;;;;;;;15.83;80.35;100671.09;4453748;32;20127;-66
2022/05/18 00:03:41;;;;;;;2.65;2.30;;;;;;;15.78;82.07;100669.44;4453649;32;20092;-66
2022/05/18 00:06:10;;;;;;;3.80;2.15;;;;;;;15.76;81.98;100668.66;4453782;32;20101;-66
2022/05/18 00:08:38;;;;;;;6.95;2.40;;;;;;;15.83;80.03;100676.41;4453635;32;20088;-66
2022/05/18 00:11:12;;;;;;;2.00;1.80;;;;;;;15.84;79.98;100675.53;4453601;32;20097;-66
2022/05/18 00:13:43;;;;;;;3.75;2.30;;;;;;;15.84;80.02;100672.88;4453574;32;20096;-66
2022/05/18 00:16:12;;;;;;;4.15;2.05;;;;;;;15.81;79.92;100676.47;4453570;32;20150;-66
2022/05/18 00:18:39;;;;;;;4.90;2.08;;;;;;;15.82;78.91;100680.00;4453601;32;20569;-66
2022/05/18 00:21:08;;;;;;;5.18;2.30;;;;;;;15.84;77.02;100673.72;4453454;32;20119;-66
2022/05/18 00:23:35;;;;;;;2.83;2.00;;;;;;;15.87;76.81;100678.09;4453369;32;20524;-66
2022/05/18 00:26:03;;;;;;;4.43;2.28;;;;;;;15.91;76.17;100679.75;4453329;32;20535;-66
2022/05/18 00:28:32;;;;;;;8.52;2.03;;;;;;;15.90;75.73;100686.84;4453595;32;20500;-66
2022/05/18 00:31:00;;;;;;;2.55;2.12;;;;;;;15.90;74.43;100686.84;4453341;32;20084;-66
2022/05/18 00:33:28;;;;;;;2.62;1.80;;;;;;;15.87;74.92;100688.72;4453246;32;20096;-66
2022/05/18 00:35:59;;;;;;;2.40;2.12;;;;;;;15.81;75.09;100691.53;4453364;32;20196;-66
2022/05/18 00:38:27;;;;;;;2.75;1.80;;;;;;;15.80;74.55;100695.13;4453337;32;20085;-66
2022/05/18 00:40:55;;;;;;;5.03;1.77;;;;;;;15.77;75.25;100691.63;4451602;32;20111;-66
2022/05/18 00:43:29;;;;;;;7.60;2.30;;;;;;;15.89;73.88;100694.84;4453008;32;20097;-66
2022/05/18 00:45:58;;;;;;;3.42;1.87;;;;;;;15.82;73.69;100693.28;4453237;32;20111;-66
2022/05/18 00:48:26;;;;;;;2.87;2.22;;;;;;;15.75;73.68;100693.44;4454264;32;20401;-66
2022/05/18 00:50:55;;;;;;;2.12;1.92;;;;;;;15.72;74.32;100697.97;4455292;32;20096;-66
2022/05/18 00:53:27;;;;;;;3.53;1.90;;;;;;;15.70;73.87;100695.38;4455184;32;20120;-66
2022/05/18 00:56:00;;;;;;;3.70;2.00;;;;;;;15.68;74.81;100702.50;4455432;32;20508;-66
2022/05/18 00:58:30;;;;;;;3.10;1.80;;;;;;;15.69;75.71;100700.75;4455524;32;20103;-66
2022/05/18 01:00:58;;;;;;;2.60;1.65;;;;;;;15.65;75.44;100702.53;4455564;32;20705;-66
2022/05/18 01:03:32;;;;;;;2.55;1.70;;;;;;;15.59;75.36;100710.72;4455073;32;20168;-66
2022/05/18 01:06:15;;;;;;;5.93;1.92;;;;;;;15.55;74.74;100711.72;4455205;32;20495;-66
2022/05/18 01:08:52;;;;;;;2.00;1.90;;;;;;;15.48;76.56;100710.12;4455329;32;20506;-66
2022/05/18 01:11:20;;;;;;;5.47;2.05;;;;;;;15.41;74.87;100721.84;4455246;32;20578;-66
2022/05/18 01:13:48;;;;;;;2.92;1.90;;;;;;;15.34;75.41;100722.91;4455068;32;20400;-66
2022/05/18 01:16:16;;;;;;;3.37;1.62;;;;;;;15.28;73.92;100730.09;4455128;32;20164;-66
2022/05/18 01:18:44;;;;;;;2.20;1.50;;;;;;;15.25;75.62;100724.87;4455050;32;20135;-66
2022/05/18 01:21:11;;;;;;;4.57;2.10;;;;;;;15.23;73.35;100732.03;4455013;32;20119;-66
2022/05/18 01:23:52;;;;;;;1.58;1.48;;;;;;;15.25;70.45;100730.19;4454930;32;20180;-66
2022/05/18 01:26:47;;;;;;;2.78;1.70;;;;;;;15.25;69.78;100737.28;4455115;32;20097;-66
2022/05/18 01:29:18;;;;;;;4.18;1.83;;;;;;;15.21;70.74;100738.25;4455182;32;20077;-66
2022/05/18 01:31:56;;;;;;;1.83;1.60;;;;;;;15.28;68.72;100738.06;4455007;32;20153;-66
2022/05/18 01:34:24;;;;;;;;;;;;;;;15.34;68.26;100750.31;4455375;32;20156;-66
2022/05/18 01:36:52;;;;;;;5.62;1.65;;;;;;;15.32;68.67;100752.13;4455190;32;20537;-66
2022/05/18 01:39:27;;;;;;;1.95;1.45;;;;;;;15.33;68.84;100751.22;4454941;32;20723;-66
2022/05/18 01:42:03;;;;;;;3.60;2.10;;;;;;;15.35;67.34;100746.75;4454987;32;20085;-66
2022/05/18 01:44:33;;;;;;;1.83;1.70;;;;;;;15.29;68.45;100742.47;4454940;32;20109;-66
2022/05/18 01:47:00;;;;;;;4.18;1.60;;;;;;;15.23;68.17;100749.69;4454834;32;20097;-66
2022/05/18 01:49:27;;;;;;;4.00;1.33;;;;;;;15.18;69.00;100748.97;4454952;32;20192;-66
2022/05/18 01:51:56;;;;;;;1.30;1.20;;;;;;;15.13;69.20;100757.03;4455000;32;20104;-66
2022/05/18 01:54:23;;;;;;;3.62;1.67;;;;;;;15.12;68.14;100755.28;4454817;32;20554;-66
2022/05/18 01:56:51;;;;;;;2.50;1.48;;;;;;;15.09;69.16;100760.69;4454835;32;20130;-66
2022/05/18 01:59:18;;;;;;;1.95;1.52;;;;;;;15.06;69.41;100756.31;4454696;32;20104;-66
2022/05/18 02:01:46;;;;;;;2.78;1.77;;;;;;;15.04;68.85;100762.56;4454801;32;20149;-66
2022/05/18 02:04:13;;;;;;;2.25;1.83;;;;;;;15.00;71.57;100767.06;4454669;32;20089;-66
2022/05/18 02:06:41;;;;;;;1.70;1.60;;;;;;;14.98;71.99;100770.66;4454785;32;20127;-66
2022/05/18 02:09:08;;;;;;;4.78;1.80;;;;;;;14.97;73.01;100776.88;4454721;32;20108;-66
2022/05/18 02:11:35;;;;;;;3.25;1.60;;;;;;;14.83;72.63;100778.06;4454820;32;20176;-66
2022/05/18 02:14:03;;;;;;;3.53;1.87;;;;;;;14.73;75.24;100773.88;4454616;32;20139;-66
2022/05/18 02:16:30;;;;;;;4.10;1.60;;;;;;;14.60;74.78;100777.75;4454830;32;20092;-66
2022/05/18 02:18:58;;;;;;;3.03;1.80;;;;;;;14.55;73.39;100779.59;4454653;32;20080;-66
2022/05/18 02:21:25;;;;;;;2.40;1.83;;;;;;;14.48;73.89;100792.09;4454762;32;20123;-66
2022/05/18 02:23:52;;;;;;;4.78;2.05;;;;;;;14.47;73.65;100789.47;4454562;32;20167;-66
2022/05/18 02:26:21;;;;;;;2.58;1.73;;;;;;;14.39;74.00;100800.25;4454488;32;20131;-66
2022/05/18 02:28:48;;;;;;;2.37;2.00;;;;;;;14.31;74.40;100795.12;4454657;32;20076;-66
2022/05/18 02:31:15;;;;;;;2.33;2.10;;;;;;;14.23;74.56;100801.47;4454680;32;20089;-66
2022/05/18 02:33:43;;;;;;;4.72;1.87;;;;;;;14.11;75.10;100800.81;4454682;32;20097;-66
2022/05/18 02:36:11;;;;;;;3.05;1.87;;;;;;;14.01;75.89;100804.53;4454556;32;20108;-66
2022/05/18 02:38:39;;;;;;;9.35;2.08;;;;;;;13.92;76.15;100807.34;4454517;32;20093;-66
2022/05/18 02:41:07;;;;;;;4.07;2.00;;;;;;;13.75;77.16;100815.63;4454543;32;20119;-66
2022/05/18 02:43:38;;;;;;;4.12;2.00;;;;;;;13.58;78.40;100815.06;4454379;32;20105;-66
2022/05/18 02:46:05;;;;;;;2.20;2.00;;;;;;;13.43;79.12;100810.00;4454720;32;20080;-66
2022/05/18 02:48:32;;;;;;;6.93;2.00;;;;;;;13.25;81.24;100816.47;4454479;32;20076;-66
2022/05/18 02:51:00;;;;;;;5.10;2.40;;;;;;;13.10;81.29;100822.84;4454418;32;20445;-66
2022/05/18 02:53:27;;;;;;;2.80;2.30;;;;;;;13.01;82.65;100828.31;4454389;32;20092;-66
2022/05/18 02:56:06;;;;;;;6.12;2.10;;;;;;;12.97;83.05;100831.84;4454518;32;20097;-66
2022/05/18 02:58:48;;;;;;;4.40;2.30;;;;;;;12.88;83.94;100838.16;4454585;32;20918;-66
2022/05/18 03:01:26;;;;;;;4.82;2.20;;;;;;;12.70;85.31;100833.13;4454428;32;20077;-66
2022/05/18 03:03:54;;;;;;;4.55;2.60;;;;;;;12.67;85.24;100844.63;4454340;32;20437;-66
2022/05/18 03:06:24;;;;;;;3.03;2.50;;;;;;;12.56;85.17;100841.25;4454423;32;20570;-66
2022/05/18 03:08:51;;;;;;;6.10;2.53;;;;;;;12.51;85.54;100849.25;4454275;32;20106;-66
2022/05/18 03:11:19;;;;;;;5.22;2.70;;;;;;;12.44;86.79;100860.78;4453549;32;20143;-66
2022/05/18 03:13:47;;;;;;;7.87;2.70;;;;;;;12.31;87.35;100857.41;4454279;32;20532;-66
2022/05/18 03:16:14;;;;;;;3.85;2.47;;;;;;;12.23;89.30;100855.75;4454325;32;20104;-66
2022/05/18 03:18:41;;;;;;;7.28;2.78;;;;;;;12.21;88.58;100874.25;4454338;32;20467;-66
2022/05/18 03:23:55;;;;;;;3.35;2.72;;;;;;;12.21;89.85;100876.88;4454129;32;20093;-66
2022/05/18 03:26:23;;;;;;;4.05;2.60;;;;;;;12.16;90.60;100878.72;4454136;32;20141;-66
2022/05/18 03:28:55;;;;;;;7.07;2.83;;;;;;;12.12;90.32;100887.53;4454268;32;20143;-66
2022/05/18 03:31:24;;;;;;;4.37;2.65;;;;;;;12.15;91.12;100890.16;4454301;32;20081;-66
2022/05/18 03:33:55;;;;;;;11.48;2.92;;;;;;;12.16;92.02;100898.06;4454077;32;20143;-66
2022/05/18 03:36:25;;;;;;;4.03;2.83;;;;;;;12.08;91.27;100905.19;4454013;32;20105;-66
2022/05/18 03:38:52;;;;;;;10.38;3.08;;;;;;;12.13;92.29;100906.03;4454340;32;20077;-66
2022/05/18 03:41:20;;;;;;;6.18;3.03;;;;;;;12.17;91.98;100913.03;4454006;32;20093;-66
2022/05/18 03:43:48;;;;;;;4.95;3.12;;;;;;;12.18;92.62;100917.41;4453977;32;20124;-66
2022/05/18 03:46:16;;;;;;;5.50;2.80;;;;;;;12.29;92.25;100927.88;4453977;32;20482;-66
2022/05/18 03:48:44;;;;;;;4.22;2.83;;;;;;;12.38;91.03;100927.78;4454045;32;20594;-66
2022/05/18 03:51:14;;;;;;;2.87;2.62;;;;;;;12.51;89.38;100935.56;4454048;32;20156;-66
2022/05/18 03:53:41;;;;;;;3.05;2.40;;;;;;;12.64;87.34;100940.69;4453905;32;20496;-66
2022/05/18 03:56:09;;;;;;;4.22;2.75;;;;;;;12.80;84.07;100944.06;4453896;32;20096;-66
2022/05/18 03:58:36;;;;;;;9.40;2.65;;;;;;;12.96;83.24;100941.22;4453845;32;20080;-67
2022/05/18 04:01:08;;;;;;;4.60;2.50;;;;;;;13.15;84.27;100942.75;4453736;32;20491;-66
2022/05/18 04:03:40;;;;;;;3.62;2.35;;;;;;;13.23;81.76;100943.50;4453536;32;20171;-67
2022/05/18 04:06:08;;;;;;;5.25;2.10;;;;;;;13.40;79.67;100953.88;4452346;32;20446;-67
2022/05/18 04:08:36;;;;;;;3.22;2.67;;;;;;;13.46;78.81;100958.19;4453634;32;20191;-67
2022/05/18 04:11:05;;;;;;;4.65;2.50;;;;;;;13.52;78.81;100952.81;4453833;32;20150;-67
2022/05/18 04:13:33;;;;;;;6.53;2.50;;;;;;;13.53;79.57;100965.16;4454592;32;20451;-66
2022/05/18 04:16:00;;;;;;;5.80;2.92;;;;;;;13.58;78.65;100968.63;4454596;32;20166;-66
2022/05/18 04:18:28;;;;;;;4.18;2.92;;;;;;;13.62;80.33;100967.69;4454761;32;20559;-67
2022/05/18 04:20:56;;;;;;;9.55;2.50;;;;;;;13.71;80.14;100971.94;4454609;32;20084;-66
2022/05/18 04:23:24;;;;;;;5.93;2.80;;;;;;;13.84;79.37;100984.09;4455747;32;20143;-67
2022/05/18 04:25:53;;;;;;;6.20;2.60;;;;;;;13.85;79.45;100984.09;4456495;32;20096;-66
2022/05/18 04:28:20;;;;;;;4.00;2.97;;;;;;;13.92;78.93;100987.50;4456458;32;20134;-66
2022/05/18 04:30:49;;;;;;;7.65;3.10;;;;;;;13.98;79.31;100984.75;4456464;32;20161;-66
2022/05/18 04:33:20;;;;;;;4.00;2.87;;;;;;;14.05;77.91;100996.13;4456515;32;20085;-67
2022/05/18 04:35:50;;;;;;;5.75;2.92;;;;;;;14.16;79.24;101002.13;4456646;32;20164;-67
2022/05/18 04:38:19;;;;;;;7.93;2.90;;;;;;;14.25;78.40;101003.75;4456658;32;20077;-67
2022/05/18 04:40:52;;;;;;;8.10;2.62;;;;;;;14.42;77.79;101014.09;4456477;32;20104;-66
2022/05/18 04:43:20;;;;;;;5.15;2.47;;;;;;;14.47;76.61;101014.88;4456350;32;20092;-66
2022/05/18 04:45:47;;;;;;;8.38;2.70;;;;;;;14.63;77.07;101019.03;4456425;32;20123;-66
2022/05/18 04:48:17;;;;;;;3.08;2.40;;;;;;;14.76;75.75;101025.84;4456356;32;20160;-67
2022/05/18 04:50:47;;;;;;;4.75;2.45;;;;;;;14.92;74.75;101029.09;4455622;32;20163;-67
2022/05/18 04:53:15;;;;;;;12.88;2.67;;;;;;;15.04;72.23;101022.66;4455716;32;20089;-67
2022/05/18 04:55:43;;;;;;;6.75;2.37;;;;;;;15.23;72.43;101031.09;4455528;32;20195;-66
2022/05/18 04:58:11;;;;;;;3.60;2.05;;;;;;;15.31;71.56;101034.50;4455938;32;20084;-67
2022/05/18 05:00:39;;;;;;;3.33;2.00;;;;;;;15.38;70.43;101041.41;4456220;32;20080;-66
2022/05/18 05:03:06;;;;;;;3.47;1.58;;;;;;;15.42;68.36;101048.41;4456289;32;20176;-66
2022/05/18 05:05:34;;;;;;;4.75;2.17;;;;;;;15.49;69.21;101054.47;4455965;32;20763;-66
2022/05/18 05:08:01;;;;;;;8.70;2.30;;;;;;;15.45;67.85;101056.31;4456315;32;20081;-66
2022/05/18 05:10:29;;;;;;;5.68;1.90;;;;;;;15.49;67.47;101062.44;4456144;32;20097;-67
2022/05/18 05:12:56;;;;;;;2.85;2.05;;;;;;;15.52;67.71;101070.34;4455897;32;20600;-66
2022/05/18 05:15:23;;;;;;;14.13;2.00;;;;;;;15.51;66.96;101068.56;4455740;32;20481;-67
2022/05/18 05:17:51;;;;;;;8.93;1.85;;;;;;;15.52;68.45;101073.87;4455823;32;20183;-67
2022/05/18 05:20:18;;;;;;;4.75;2.20;;;;;;;15.58;67.55;101082.59;4455968;32;20093;-66
2022/05/18 05:22:45;;;;;;;8.25;1.87;;;;;;;15.64;65.47;101085.13;4455013;32;20177;-66
2022/05/18 05:25:14;;;;;;;12.30;2.87;;;;;;;15.81;65.85;101084.81;4455852;32;20155;-66
2022/05/18 05:27:42;;;;;;;2.37;1.92;;;;;;;15.92;65.54;101096.06;4455685;32;20159;-66
2022/05/18 05:30:10;;;;;;;5.45;1.95;;;;;;;16.19;64.55;101100.75;4455703;32;20418;-66
2022/05/18 05:32:37;;;;;;;2.85;1.67;;;;;;;16.27;62.18;101111.19;4455939;32;20085;-66
2022/05/18 05:35:06;;;;;;;6.15;1.70;;;;;;;16.36;62.11;101112.75;4455530;32;20123;-66
2022/05/18 05:37:33;;;;;;;9.00;2.30;;;;;;;16.45;61.68;101110.75;4456128;32;20693;-66
2022/05/18 05:40:01;;;;;;;11.50;2.37;;;;;;;16.41;63.32;101114.41;4455792;32;20168;-66
2022/05/18 05:42:28;;;;;;;8.13;1.77;;;;;;;16.52;63.69;101130.09;4455866;32;20725;-65
2022/05/18 05:44:55;;;;;;;9.23;1.77;;;;;;;16.77;60.86;101132.19;4455741;32;20522;-65
2022/05/18 05:47:23;;;;;;;4.65;2.00;;;;;;;16.79;58.16;101138.34;4455256;32;20151;-65
2022/05/18 05:49:50;;;;;;;13.48;2.08;;;;;;;16.68;57.90;101144.78;4455118;32;20158;-65
2022/05/18 05:52:17;;;;;;;7.65;1.75;;;;;;;16.64;61.00;101145.78;4455773;32;20127;-66
2022/05/18 05:54:44;;;;;;;6.57;2.03;;;;;;;16.60;57.32;101156.50;4455634;32;20105;-66
2022/05/18 05:57:11;;;;;;;3.92;2.00;;;;;;;16.63;58.19;101162.63;4455868;32;20084;-65
2022/05/18 05:59:40;;;;;;;5.65;1.67;;;;;;;16.82;59.25;101163.09;4455665;32;20085;-66
2022/05/18 06:02:11;;;;;;;6.72;1.92;;;;;;;16.93;57.10;101165.50;4455566;32;20109;-66
2022/05/18 06:04:59;;;;;;;6.22;1.75;;;;;;;17.15;57.56;101172.00;4455684;32;20440;-66
2022/05/18 06:07:46;;;;;;;;;;;;;;;17.20;55.10;101179.84;4455868;32;20106;-66
2022/05/18 06:10:14;;;;;;;3.85;1.75;;;;;;;17.34;53.60;101183.00;4455619;32;20399;-65
2022/05/18 06:12:41;;;;;;;12.55;2.83;;;;;;;17.49;52.85;101196.84;4455690;32;20112;-65
2022/05/18 06:15:09;;;;;;;15.75;2.58;;;;;;;17.41;50.71;101197.91;4455739;32;20104;-66
2022/05/18 06:17:37;;;;;;;6.10;1.85;;;;;;;17.37;50.45;101209.56;4455687;32;20814;-65
2022/05/18 06:20:06;;;;;;;9.00;1.90;;;;;;;17.32;49.99;101205.31;4455478;32;20085;-65
2022/05/18 06:22:33;;;;;;;4.35;1.65;;;;;;;17.37;50.80;101208.72;4455424;32;20756;-65
2022/05/18 06:25:01;;;;;;;12.70;2.00;;;;;;;17.61;50.83;101218.69;4455445;32;20760;-65
2022/05/18 06:27:28;;;;;;;2.72;1.45;;;;;;;17.66;50.04;101222.09;4464000;32;20106;-66
2022/05/18 06:29:55;;;;;;;5.78;2.10;;;;;;;17.86;52.08;101224.25;4471421;32;20092;-66
2022/05/18 06:32:22;;;;;;;6.15;1.65;;;;;;;17.91;51.02;101224.09;4471110;32;20092;-66
2022/05/18 06:34:49;;;;;;;5.75;1.77;;;;;;;18.01;49.67;101222.06;4471167;32;20135;-66
2022/05/18 06:37:16;;;;;;;2.97;1.77;;;;;;;17.67;49.14;101233.66;4469953;32;20376;-65
2022/05/18 06:39:44;;;;;;;9.07;1.87;;;;;;;17.43;49.79;101230.72;4470155;32;20403;-66
2022/05/18 06:42:11;;;;;;;10.57;2.28;;;;;;;17.38;50.58;101239.75;4470012;32;20858;-66
2022/05/18 06:44:40;;;;;;;8.20;1.60;;;;;;;17.35;52.39;101247.81;4469964;32;20096;-66
2022/05/18 06:47:09;;;;;;;6.75;1.65;;;;;;;17.21;51.05;101250.87;4469360;32;20072;-66
2022/05/18 06:49:36;;;;;;;5.87;1.75;;;;;;;17.22;50.00;101255.28;4470025;32;20498;-65
2022/05/18 06:52:04;;;;;;;4.45;1.48;;;;;;;17.10;49.35;101253.81;4469657;32;20539;-65
2022/05/18 06:54:31;;;;;;;3.12;1.52;;;;;;;17.13;50.17;101263.47;4469751;32;20130;-66
2022/05/18 06:57:18;;;;;;;;;;;;;;;17.20;49.82;101268.59;4470631;32;20415;-66
2022/05/18 06:59:46;;;;;;;4.80;1.83;;;;;;;17.13;49.46;101272.34;4471241;32;19999;-65
2022/05/18 07:02:13;;;;;;;6.50;1.52;;;;;;;17.17;50.60;101282.03;4470970;32;20088;-65
2022/05/18 07:04:40;;;;;;;1.67;1.40;;;;;;;17.24;51.17;101273.87;4470856;32;20104;-65
2022/05/18 07:07:18;;;;;;;5.87;1.77;;;;;;;17.30;48.22;101284.37;4471119;32;20076;-66
2022/05/18 07:09:45;;;;;;;9.68;1.27;;;;;;;17.28;49.04;101289.75;4470940;32;20096;-65
2022/05/18 07:12:12;;;;;;;9.77;1.73;;;;;;;17.16;47.30;101292.69;4470843;32;20096;-66
2022/05/18 07:14:39;;;;;;;8.23;1.40;;;;;;;17.37;49.21;101299.28;4470432;32;20127;-65
2022/05/18 07:17:06;;;;;;;4.55;1.27;;;;;;;17.44;47.42;101304.41;4470889;32;20123;-66
2022/05/18 07:19:33;;;;;;;4.07;1.58;;;;;;;17.59;47.11;101311.13;4470839;32;20503;-66
2022/05/18 07:22:01;;;;;;;4.28;1.17;;;;;;;17.47;45.19;101303.47;4466768;32;20218;-66
2022/05/18 07:24:29;;;;;;;5.25;1.40;;;;;;;17.60;44.94;101315.56;4457078;32;20216;-65
2022/05/18 07:26:56;;;;;;;5.10;1.17;;;;;;;17.66;43.97;101317.19;4461360;32;20096;-65
2022/05/18 07:29:23;;;;;;;2.80;1.10;;;;;;;17.59;42.36;101308.47;4462595;32;20109;-66
2022/05/18 07:32:09;;;;;;;2.17;1.30;;;;;;;17.55;44.06;101311.25;4461648;32;20206;-65
2022/05/18 07:34:37;;;;;;;6.50;1.50;;;;;;;17.56;44.31;101316.56;4454929;32;20176;-65
2022/05/18 07:37:05;;;;;;;1.98;1.17;;;;;;;17.71;47.96;101319.75;4454300;32;20076;-65
2022/05/18 07:39:33;;;;;;;5.22;1.50;;;;;;;17.88;43.90;101312.19;4453473;32;20089;-65
2022/05/18 07:42:01;;;;;;;12.82;1.37;;;;;;;17.94;43.38;101320.00;4454228;32;20172;-66
2022/05/18 07:44:28;;;;;;;10.68;1.77;;;;;;;17.95;42.25;101318.22;4454745;32;20126;-66
2022/05/18 07:46:55;;;;;;;6.00;1.00;;;;;;;18.01;41.45;101328.72;4454923;32;20111;-65
2022/05/18 07:49:23;;;;;;;6.72;1.35;;;;;;;18.23;41.47;101331.66;4454665;32;20119;-65
2022/05/18 07:51:50;;;;;;;37.30;2.05;;;;;;;18.38;41.83;101334.78;4453007;32;20093;-66
2022/05/18 07:54:17;;;;;;;12.80;1.67;;;;;;;18.58;41.55;101341.31;4454152;32;20100;-66
2022/05/18 07:56:45;;;;;;;8.65;1.65;;;;;;;18.82;41.65;101342.41;4454273;32;20104;-65
2022/05/18 07:59:14;;;;;;;28.90;2.00;;;;;;;18.92;41.38;101345.66;4454058;32;20092;-65
2022/05/18 08:01:42;;;;;;;7.20;2.33;;;;;;;19.07;41.20;101339.81;4461458;32;20093;-65
2022/05/18 08:04:10;;;;;;;13.02;1.60;;;;;;;19.38;41.37;101346.84;4462933;32;20108;-65
2022/05/18 08:06:38;;;;;;;43.83;2.12;;;;;;;19.51;41.19;101340.19;4466421;32;20101;-65
2022/05/18 08:09:06;;;;;;;25.20;1.70;;;;;;;19.52;41.16;101347.28;4458946;32;20199;-66
2022/05/18 08:15:05;;;;;;;47.67;3.00;;;;;;;19.62;40.36;101353.19;4468101;32;20667;-66
2022/05/18 08:17:18;;;;;;;3.60;1.55;;;;;;;19.57;38.88;101356.00;4454324;32;20130;-66
2022/05/18 08:19:46;;;;;;;4.40;1.27;;;;;;;19.61;39.30;101367.47;4454438;32;20093;-66
2022/05/18 08:22:14;;;;;;;9.50;1.50;;;;;;;19.55;38.04;101366.75;4454247;32;20124;-66
2022/05/18 08:24:41;;;;;;;6.57;1.58;;;;;;;19.72;40.00;101376.06;4456321;32;20169;-66
2022/05/18 08:27:14;;;;;;;13.60;1.50;;;;;;;19.83;40.47;101375.69;4460908;32;20080;-65
2022/05/18 08:29:42;;;;;;;6.70;1.52;;;;;;;20.04;39.08;101382.97;4456394;32;20088;-66
2022/05/18 08:32:09;;;;;;;6.35;1.58;;;;;;;20.18;39.01;101390.50;4455801;32;20093;-65
2022/05/18 08:34:36;;;;;;;9.13;1.33;;;;;;;20.04;36.21;101383.81;4454148;32;20100;-65
2022/05/18 08:37:04;;;;;;;15.32;1.15;;;;;;;19.77;38.71;101387.44;4454747;32;20127;-65
2022/05/18 08:39:31;;;;;;;32.00;2.10;;;;;;;20.16;38.64;101395.00;4461733;32;20093;-65
2022/05/18 08:42:00;;;;;;;15.75;1.60;;;;;;;20.59;37.16;101390.78;4454108;32;20647;-65
2022/05/18 08:44:32;;;;;;;12.48;1.98;;;;;;;20.08;37.12;101391.75;4454393;32;20123;-65
2022/05/18 08:47:25;;;;;;;21.67;1.58;;;;;;;20.40;38.49;101391.44;4459539;32;20156;-65
2022/05/18 08:49:55;;;;;;;11.25;1.80;;;;;;;20.55;36.58;101390.03;4452696;32;20101;-65
2022/05/18 08:52:43;;;;;;;23.80;2.37;;;;;;;20.54;37.62;101390.97;4458242;32;20100;-65
2022/05/18 08:55:29;;;;;;;15.68;1.87;;;;;;;20.59;35.74;101393.47;4452936;32;20101;-65
2022/05/18 08:57:59;;;;;;;7.32;1.30;;;;;;;20.82;37.93;101398.84;4452029;32;20123;-65
2022/05/18 09:00:34;;;;;;;10.63;1.37;;;;;;;21.05;36.84;101397.06;4462110;32;20139;-65
2022/05/18 09:03:11;;;;;;;17.37;1.83;;;;;;;21.23;35.42;101404.38;4464070;32;20100;-66
2022/05/18 09:06:01;;;;;;;5.70;1.37;;;;;;;21.33;34.93;101410.25;4460383;32;20821;-65
2022/05/18 09:08:38;;;;;;;19.25;1.75;;;;;;;21.16;35.94;101402.87;4462739;32;20770;-65
2022/05/18 09:11:19;;;;;;;13.57;1.60;;;;;;;21.50;36.10;101402.44;4463105;32;20488;-65
2022/05/18 09:13:47;;;;;;;40.70;2.42;;;;;;;20.81;34.62;101402.44;4462507;32;20464;-65
2022/05/18 09:16:35;;;;;;;17.85;1.95;;;;;;;21.04;34.85;101406.91;4456520;32;20096;-66
2022/05/18 09:19:11;;;;;;;5.45;1.60;;;;;;;21.41;35.69;101411.72;4457198;32;20483;-65
2022/05/18 09:21:51;;;;;;;51.30;2.28;;;;;;;21.48;34.62;101397.13;4467740;32;20489;-66
2022/05/18 09:24:43;;;;;;;10.57;1.75;;;;;;;21.89;35.16;101405.25;4455884;32;20146;-66
2022/05/18 09:27:23;;;;;;;28.48;2.08;;;;;;;21.76;36.37;101403.13;4462660;32;20092;-65
2022/05/18 09:30:25;;;;;;;7.32;1.58;;;;;;;21.98;35.11;101405.78;4470221;32;20080;-65
2022/05/18 09:33:14;;;;;;;5.53;1.23;;;;;;;22.38;34.53;101408.50;4466858;32;20776;-66
2022/05/18 09:35:41;;;;;;;4.68;1.33;;;;;;;22.52;34.25;101404.31;4456155;32;20462;-66
2022/05/18 09:38:46;;;;;;;6.93;1.20;;;;;;;22.60;32.99;101405.72;4461361;32;20213;-66
2022/05/18 09:41:19;;;;;;;10.35;1.45;;;;;;;22.43;30.30;101401.09;4433676;32;20088;-66
2022/05/18 09:44:00;;;;;;;2.35;1.10;;;;;;;22.40;34.29;101409.31;4461760;32;20154;-65
2022/05/18 09:46:30;;;;;;;4.22;1.20;;;;;;;22.64;32.64;101414.50;4454982;32;20477;-66
2022/05/18 09:49:06;;;;;;;5.47;1.40;;;;;;;22.48;32.26;101418.84;4462611;32;20152;-66
2022/05/18 09:51:34;;;;;;;29.37;2.58;;;;;;;22.68;31.91;101410.72;4469298;32;20143;-66
2022/05/18 09:54:03;;;;;;;2.67;1.20;;;;;;;23.22;30.92;101422.56;4460635;32;20150;-65
2022/05/18 09:56:39;;;;;;;20.48;1.55;;;;;;;23.03;28.87;101427.06;4455259;32;20529;-65
2022/05/18 09:59:13;;;;;;;4.85;1.45;;;;;;;23.07;31.12;101424.13;4441050;32;20177;-65
2022/05/18 10:07:31;;;;;;;5.18;1.15;;;;;;;23.24;28.94;101428.72;4471364;32;20076;-66
2022/05/18 10:10:02;;;;;;;4.30;1.62;;;;;;;22.97;29.32;101430.03;4464284;32;20226;-65
2022/05/18 10:12:43;;;;;;;2.25;1.30;;;;;;;22.79;29.68;101423.66;4461941;32;20080;-65
2022/05/18 10:15:21;;;;;;;4.25;1.50;;;;;;;22.96;31.46;101425.59;4461746;32;20496;-65
2022/05/18 10:17:53;;;;;;;4.80;1.60;;;;;;;23.18;31.58;101423.66;4467955;32;20104;-65
2022/05/18 10:20:26;;;;;;;9.50;1.40;;;;;;;23.31;30.00;101419.41;4470076;32;20159;-65
2022/05/18 10:22:53;;;;;;;2.28;1.33;;;;;;;23.41;31.68;101416.28;4471050;32;20484;-66
2022/05/18 10:25:27;;;;;;;3.17;1.30;;;;;;;23.18;29.56;101415.59;4471221;32;20084;-65
2022/05/18 10:27:55;;;;;;;5.80;1.70;;;;;;;22.70;30.90;101418.72;4471267;32;20184;-65
2022/05/18 10:30:30;;;;;;;6.25;2.00;;;;;;;21.77;31.54;101413.81;4471147;32;20092;-65
2022/05/18 10:33:19;;;;;;;3.17;1.50;;;;;;;22.61;32.75;101411.94;4471121;32;20093;-66
2022/05/18 10:35:50;;;;;;;5.18;1.48;;;;;;;23.67;29.44;101409.59;4471243;32;20147;-66
2022/05/18 10:38:33;;;;;;;2.78;1.37;;;;;;;24.39;29.09;101405.91;4470766;32;20208;-65
2022/05/18 10:41:11;;;;;;;8.23;1.12;;;;;;;24.55;25.95;101406.84;4471303;32;20168;-65
2022/05/18 10:43:43;;;;;;;3.87;1.20;;;;;;;24.91;25.37;101401.28;4471043;32;20081;-64
2022/05/18 10:46:19;;;;;;;4.68;1.33;;;;;;;25.26;25.34;101407.38;4470773;32;20147;-65
2022/05/18 10:49:00;;;;;;;1.92;1.00;;;;;;;25.42;24.96;101399.28;4470165;32;20137;-66
2022/05/18 10:51:43;;;;;;;3.78;1.25;;;;;;;25.14;24.15;101397.31;4468174;32;20104;-66
2022/05/18 10:54:23;;;;;;;5.37;1.10;;;;;;;25.21;23.10;101395.12;4470710;32;20423;-66
2022/05/18 10:56:52;;;;;;;7.62;1.02;;;;;;;25.15;25.16;101387.38;4470398;32;20789;-66
2022/05/18 10:59:44;;;;;;;2.75;1.42;;;;;;;25.18;23.69;101389.91;4455720;32;20109;-65
2022/05/18 11:02:47;;;;;;;11.00;0.90;;;;;;;24.87;23.51;101390.72;4456312;32;20164;-66
2022/05/18 11:05:39;;;;;;;6.75;1.00;;;;;;;24.75;24.37;101393.16;4414200;32;20737;-65
2022/05/18 11:08:14;;;;;;;9.88;1.00;;;;;;;24.41;24.18;101387.84;4460396;32;20147;-65
2022/05/18 11:11:18;;;;;;;4.70;1.00;;;;;;;23.44;23.85;101387.41;4465370;32;20084;-66
2022/05/18 11:14:06;;;;;;;7.72;1.10;;;;;;;23.33;23.72;101387.06;4455258;32;20092;-66
2022/05/18 11:17:10;;;;;;;5.15;1.23;;;;;;;23.68;25.20;101389.87;4470109;32;20190;-66
2022/05/18 11:19:50;;;;;;;5.12;1.15;;;;;;;24.61;22.10;101386.78;4467931;32;20118;-66
2022/05/18 11:22:23;;;;;;;2.92;0.85;;;;;;;25.30;21.79;101388.31;4469736;32;20096;-66
2022/05/18 11:25:20;;;;;;;3.95;0.80;;;;;;;25.91;20.82;101384.78;4458037;32;20164;-66
2022/05/18 11:28:22;;;;;;;1.40;0.70;;;;;;;26.32;20.61;101389.47;4460868;32;20100;-66
2022/05/18 11:31:08;;;;;;;5.90;1.10;;;;;;;27.76;19.71;101385.59;4457282;32;20122;-66
2022/05/18 11:34:14;;;;;;;3.22;0.80;;;;;;;27.43;17.57;101381.47;4459551;32;20096;-67
2022/05/18 11:36:54;;;;;;;2.40;0.88;;;;;;;27.46;17.83;101380.41;4451497;32;20100;-67
2022/05/18 11:39:53;;;;;;;6.53;0.80;;;;;;;29.39;18.21;101375.72;4459812;32;20114;-67
2022/05/18 11:42:48;;;;;;;4.20;1.00;;;;;;;30.52;16.56;101370.66;4465620;32;20113;-67
2022/05/18 11:45:23;;;;;;;3.15;0.60;;;;;;;31.62;15.35;101367.00;4461610;32;20096;-67
2022/05/18 11:47:50;;;;;;;3.40;0.70;;;;;;;32.18;14.23;101380.34;4460582;32;20391;-67
2022/05/18 11:50:36;;;;;;;3.00;0.88;;;;;;;32.74;15.25;101381.81;4460770;32;20114;-67
2022/05/18 11:53:34;;;;;;;0.77;0.75;;;;;;;32.53;14.56;101380.00;4458697;32;20124;-67
2022/05/18 11:56:29;;;;;;;1.85;0.80;;;;;;;31.47;14.61;101380.06;4451669;32;20104;-67
2022/05/18 12:02:20;;;;;;;5.85;0.90;;;;;;;32.24;11.80;101360.72;4461485;32;20093;-67